sensor_id;sensor_type;location;lat;lon;timestamp;temperature;humidity
19586;DHT22;9939;49.246;9.106;2023-03-31T00:01:10;10.90;99.90
19586;DHT22;9939;49.246;9.106;2023-03-31T00:03:37;11.00;99.90
19586;DHT22;9939;49.246;9.106;2023-03-31T00:06:11;11.00;99.90
19586;DHT22;9939;49.246;9.106;2023-03-31T00:08:45;11.10;99.90
19586;DHT22;9939;49.246;9.106;2023-03-31T00:11:12;10.90;99.90
19586;DHT22;9939;49.246;9.106;2023-03-31T00:13:39;11.00;99.90
19586;DHT22;9939;49.246;9.106;2023-03-31T00:16:07;11.00;99.90
19586;DHT22;9939;49.246;9.106;2023-03-31T00:18:35;10.90;99.90
19586;DHT22;9939;49.246;9.106;2023-03-31T00:21:07;10.90;99.90
19586;DHT22;9939;49.246;9.106;2023-03-31T00:23:34;11.10;99.90
19586;DHT22;9939;49.246;9.106;2023-03-31T00:26:01;11.20;99.90
19586;DHT22;9939;49.246;9.106;2023-03-31T00:28:30;11.40;99.90
19586;DHT22;9939;49.246;9.106;2023-03-31T00:31:03;11.40;99.90
19586;DHT22;9939;49.246;9.106;2023-03-31T00:33:30;11.30;99.90
19586;DHT22;9939;49.246;9.106;2023-03-31T00:35:57;11.10;99.90
19586;DHT22;9939;49.246;9.106;2023-03-31T00:38:28;10.90;99.90
19586;DHT22;9939;49.246;9.106;2023-03-31T00:40:56;10.70;99.90
19586;DHT22;9939;49.246;9.106;2023-03-31T00:43:27;10.60;99.90
19586;DHT22;9939;49.246;9.106;2023-03-31T00:45:57;10.60;99.90
19586;DHT22;9939;49.246;9.106;2023-03-31T00:48:27;10.60;99.90
19586;DHT22;9939;49.246;9.106;2023-03-31T00:50:54;10.60;99.90
19586;DHT22;9939;49.246;9.106;2023-03-31T00:53:23;10.40;99.90
19586;DHT22;9939;49.246;9.106;2023-03-31T00:55:53;10.40;99.90
19586;DHT22;9939;49.246;9.106;2023-03-31T00:58:21;10.70;99.90
19586;DHT22;9939;49.246;9.106;2023-03-31T01:00:56;10.80;99.90
19586;DHT22;9939;49.246;9.106;2023-03-31T01:03:24;10.60;99.90
19586;DHT22;9939;49.246;9.106;2023-03-31T01:05:53;10.60;99.90
19586;DHT22;9939;49.246;9.106;2023-03-31T01:08:22;10.60;99.90
19586;DHT22;9939;49.246;9.106;2023-03-31T01:10:52;10.60;99.90
19586;DHT22;9939;49.246;9.106;2023-03-31T01:13:20;10.70;99.90
19586;DHT22;9939;49.246;9.106;2023-03-31T01:15:48;10.60;99.90
19586;DHT22;9939;49.246;9.106;2023-03-31T01:18:15;10.50;99.90
19586;DHT22;9939;49.246;9.106;2023-03-31T01:31:25;10.80;99.90
19586;DHT22;9939;49.246;9.106;2023-03-31T01:44:22;10.90;99.90
19586;DHT22;9939;49.246;9.106;2023-03-31T01:47:10;11.00;99.90
19586;DHT22;9939;49.246;9.106;2023-03-31T01:49:50;11.00;99.90
19586;DHT22;9939;49.246;9.106;2023-03-31T01:52:41;11.10;99.90
19586;DHT22;9939;49.246;9.106;2023-03-31T01:55:08;11.40;99.90
19586;DHT22;9939;49.246;9.106;2023-03-31T01:57:38;11.50;99.90
19586;DHT22;9939;49.246;9.106;2023-03-31T02:00:08;11.40;99.90
19586;DHT22;9939;49.246;9.106;2023-03-31T02:02:59;11.30;99.90
19586;DHT22;9939;49.246;9.106;2023-03-31T02:05:30;11.20;99.90
19586;DHT22;9939;49.246;9.106;2023-03-31T02:08:00;11.10;99.90
19586;DHT22;9939;49.246;9.106;2023-03-31T02:10:30;11.10;99.90
19586;DHT22;9939;49.246;9.106;2023-03-31T02:12:59;11.20;99.90
19586;DHT22;9939;49.246;9.106;2023-03-31T02:15:33;11.20;99.90
19586;DHT22;9939;49.246;9.106;2023-03-31T02:18:02;11.30;99.90
19586;DHT22;9939;49.246;9.106;2023-03-31T02:20:31;11.30;99.90
19586;DHT22;9939;49.246;9.106;2023-03-31T02:22:59;11.40;99.90
19586;DHT22;9939;49.246;9.106;2023-03-31T02:25:28;11.50;99.90
19586;DHT22;9939;49.246;9.106;2023-03-31T02:28:02;11.50;99.90
19586;DHT22;9939;49.246;9.106;2023-03-31T02:30:35;11.40;99.90
19586;DHT22;9939;49.246;9.106;2023-03-31T02:33:05;11.40;99.90
19586;DHT22;9939;49.246;9.106;2023-03-31T02:35:31;11.40;99.90
19586;DHT22;9939;49.246;9.106;2023-03-31T02:38:00;11.40;99.90
19586;DHT22;9939;49.246;9.106;2023-03-31T02:40:28;11.40;99.90
19586;DHT22;9939;49.246;9.106;2023-03-31T02:42:57;11.50;99.90
19586;DHT22;9939;49.246;9.106;2023-03-31T02:53:24;11.10;99.90
19586;DHT22;9939;49.246;9.106;2023-03-31T02:58:34;10.90;99.90
19586;DHT22;9939;49.246;9.106;2023-03-31T03:06:41;10.80;99.90
19586;DHT22;9939;49.246;9.106;2023-03-31T03:09:41;10.80;99.90
19586;DHT22;9939;49.246;9.106;2023-03-31T03:14:47;10.80;99.90
19586;DHT22;9939;49.246;9.106;2023-03-31T03:19:49;10.70;99.90
19586;DHT22;9939;49.246;9.106;2023-03-31T03:22:17;10.80;99.90
19586;DHT22;9939;49.246;9.106;2023-03-31T03:24:43;10.80;99.90
19586;DHT22;9939;49.246;9.106;2023-03-31T03:27:10;10.80;99.90
19586;DHT22;9939;49.246;9.106;2023-03-31T03:29:37;10.80;99.90
19586;DHT22;9939;49.246;9.106;2023-03-31T03:32:04;10.90;99.90
19586;DHT22;9939;49.246;9.106;2023-03-31T03:34:31;10.80;99.90
19586;DHT22;9939;49.246;9.106;2023-03-31T03:36:58;10.70;99.90
19586;DHT22;9939;49.246;9.106;2023-03-31T03:39:26;10.70;99.90
19586;DHT22;9939;49.246;9.106;2023-03-31T03:41:52;10.70;99.90
19586;DHT22;9939;49.246;9.106;2023-03-31T03:44:20;10.80;99.90
19586;DHT22;9939;49.246;9.106;2023-03-31T03:46:46;10.80;99.90
19586;DHT22;9939;49.246;9.106;2023-03-31T03:49:14;10.80;99.90
19586;DHT22;9939;49.246;9.106;2023-03-31T03:51:41;10.90;99.90
19586;DHT22;9939;49.246;9.106;2023-03-31T03:54:08;10.90;99.90
19586;DHT22;9939;49.246;9.106;2023-03-31T03:56:35;10.90;99.90
19586;DHT22;9939;49.246;9.106;2023-03-31T03:59:01;11.10;99.90
19586;DHT22;9939;49.246;9.106;2023-03-31T04:01:28;10.90;99.90
19586;DHT22;9939;49.246;9.106;2023-03-31T04:03:56;10.70;99.90
19586;DHT22;9939;49.246;9.106;2023-03-31T04:06:23;10.60;99.90
19586;DHT22;9939;49.246;9.106;2023-03-31T04:08:49;10.70;99.90
19586;DHT22;9939;49.246;9.106;2023-03-31T04:11:17;10.70;99.90
19586;DHT22;9939;49.246;9.106;2023-03-31T04:13:45;10.60;99.90
19586;DHT22;9939;49.246;9.106;2023-03-31T04:16:12;10.60;99.90
19586;DHT22;9939;49.246;9.106;2023-03-31T04:18:39;10.50;99.90
19586;DHT22;9939;49.246;9.106;2023-03-31T04:21:12;10.50;99.90
19586;DHT22;9939;49.246;9.106;2023-03-31T04:23:41;10.60;99.90
19586;DHT22;9939;49.246;9.106;2023-03-31T04:26:13;10.90;99.90
19586;DHT22;9939;49.246;9.106;2023-03-31T04:28:40;10.90;99.90
19586;DHT22;9939;49.246;9.106;2023-03-31T04:31:13;10.90;99.90
19586;DHT22;9939;49.246;9.106;2023-03-31T04:33:52;11.00;99.90
19586;DHT22;9939;49.246;9.106;2023-03-31T04:36:19;10.90;99.90
19586;DHT22;9939;49.246;9.106;2023-03-31T04:38:48;10.90;99.90
19586;DHT22;9939;49.246;9.106;2023-03-31T04:41:22;10.90;99.90
19586;DHT22;9939;49.246;9.106;2023-03-31T04:43:49;11.00;99.90
19586;DHT22;9939;49.246;9.106;2023-03-31T04:46:16;11.10;99.90
19586;DHT22;9939;49.246;9.106;2023-03-31T04:48:43;11.00;99.90
19586;DHT22;9939;49.246;9.106;2023-03-31T04:51:10;10.80;99.90
19586;DHT22;9939;49.246;9.106;2023-03-31T04:53:41;10.80;99.90
19586;DHT22;9939;49.246;9.106;2023-03-31T04:56:08;10.90;99.90
19586;DHT22;9939;49.246;9.106;2023-03-31T04:58:35;10.70;99.90
19586;DHT22;9939;49.246;9.106;2023-03-31T05:01:02;10.70;99.90
19586;DHT22;9939;49.246;9.106;2023-03-31T05:03:30;10.60;99.90
19586;DHT22;9939;49.246;9.106;2023-03-31T05:05:58;10.50;99.90
19586;DHT22;9939;49.246;9.106;2023-03-31T05:08:25;10.50;99.90
19586;DHT22;9939;49.246;9.106;2023-03-31T05:10:53;10.40;99.90
19586;DHT22;9939;49.246;9.106;2023-03-31T05:13:20;10.50;99.90
19586;DHT22;9939;49.246;9.106;2023-03-31T05:15:47;10.50;99.90
19586;DHT22;9939;49.246;9.106;2023-03-31T05:18:17;10.50;99.90
19586;DHT22;9939;49.246;9.106;2023-03-31T05:20:44;10.50;99.90
19586;DHT22;9939;49.246;9.106;2023-03-31T05:23:12;10.40;99.90
19586;DHT22;9939;49.246;9.106;2023-03-31T05:25:39;10.50;99.90
19586;DHT22;9939;49.246;9.106;2023-03-31T05:28:08;10.40;99.90
19586;DHT22;9939;49.246;9.106;2023-03-31T05:30:38;10.30;99.90
19586;DHT22;9939;49.246;9.106;2023-03-31T05:33:05;10.20;99.90
19586;DHT22;9939;49.246;9.106;2023-03-31T05:35:32;10.10;99.90
19586;DHT22;9939;49.246;9.106;2023-03-31T05:37:59;9.90;99.90
19586;DHT22;9939;49.246;9.106;2023-03-31T05:40:26;9.80;99.90
19586;DHT22;9939;49.246;9.106;2023-03-31T05:42:56;9.70;99.90
19586;DHT22;9939;49.246;9.106;2023-03-31T05:45:23;9.60;99.90
19586;DHT22;9939;49.246;9.106;2023-03-31T05:47:50;9.60;99.90
19586;DHT22;9939;49.246;9.106;2023-03-31T05:50:17;9.60;99.90
19586;DHT22;9939;49.246;9.106;2023-03-31T05:52:44;9.60;99.90
19586;DHT22;9939;49.246;9.106;2023-03-31T05:55:11;9.60;99.90
19586;DHT22;9939;49.246;9.106;2023-03-31T05:57:39;9.50;99.90
19586;DHT22;9939;49.246;9.106;2023-03-31T06:00:06;9.40;99.90
19586;DHT22;9939;49.246;9.106;2023-03-31T06:02:36;9.50;99.90
19586;DHT22;9939;49.246;9.106;2023-03-31T06:05:03;9.80;99.90
19586;DHT22;9939;49.246;9.106;2023-03-31T06:07:31;9.60;99.90
19586;DHT22;9939;49.246;9.106;2023-03-31T06:09:58;9.60;99.90
19586;DHT22;9939;49.246;9.106;2023-03-31T06:12:25;9.50;99.90
19586;DHT22;9939;49.246;9.106;2023-03-31T06:14:52;9.50;99.90
19586;DHT22;9939;49.246;9.106;2023-03-31T06:17:19;9.50;99.90
19586;DHT22;9939;49.246;9.106;2023-03-31T06:19:45;9.50;99.90
19586;DHT22;9939;49.246;9.106;2023-03-31T06:22:12;9.60;99.90
19586;DHT22;9939;49.246;9.106;2023-03-31T06:24:39;9.70;99.90
19586;DHT22;9939;49.246;9.106;2023-03-31T06:27:07;9.50;99.90
19586;DHT22;9939;49.246;9.106;2023-03-31T06:29:34;9.60;99.90
19586;DHT22;9939;49.246;9.106;2023-03-31T06:32:01;9.60;99.90
19586;DHT22;9939;49.246;9.106;2023-03-31T06:34:30;9.70;99.90
19586;DHT22;9939;49.246;9.106;2023-03-31T06:36:57;9.70;99.90
19586;DHT22;9939;49.246;9.106;2023-03-31T06:39:24;9.80;99.90
19586;DHT22;9939;49.246;9.106;2023-03-31T06:41:53;9.70;99.90
19586;DHT22;9939;49.246;9.106;2023-03-31T06:44:25;9.70;99.90
19586;DHT22;9939;49.246;9.106;2023-03-31T06:46:52;9.70;99.90
19586;DHT22;9939;49.246;9.106;2023-03-31T06:49:20;9.70;99.90
19586;DHT22;9939;49.246;9.106;2023-03-31T06:51:47;9.70;99.90
19586;DHT22;9939;49.246;9.106;2023-03-31T06:54:14;9.70;99.90
19586;DHT22;9939;49.246;9.106;2023-03-31T06:56:41;9.70;99.90
19586;DHT22;9939;49.246;9.106;2023-03-31T06:59:08;9.70;99.90
19586;DHT22;9939;49.246;9.106;2023-03-31T07:01:36;9.60;99.90
19586;DHT22;9939;49.246;9.106;2023-03-31T07:04:04;9.70;99.90
19586;DHT22;9939;49.246;9.106;2023-03-31T07:06:32;9.70;99.90
19586;DHT22;9939;49.246;9.106;2023-03-31T07:08:59;9.80;99.90
19586;DHT22;9939;49.246;9.106;2023-03-31T07:11:26;9.80;99.90
19586;DHT22;9939;49.246;9.106;2023-03-31T07:13:53;9.80;99.90
19586;DHT22;9939;49.246;9.106;2023-03-31T07:16:19;9.70;99.90
19586;DHT22;9939;49.246;9.106;2023-03-31T07:18:47;9.70;99.90
19586;DHT22;9939;49.246;9.106;2023-03-31T07:21:16;9.80;99.90
19586;DHT22;9939;49.246;9.106;2023-03-31T07:23:43;9.80;99.90
19586;DHT22;9939;49.246;9.106;2023-03-31T07:26:10;9.90;99.90
19586;DHT22;9939;49.246;9.106;2023-03-31T07:28:37;10.00;99.90
19586;DHT22;9939;49.246;9.106;2023-03-31T07:31:09;10.20;99.90
19586;DHT22;9939;49.246;9.106;2023-03-31T07:33:36;10.40;99.90
19586;DHT22;9939;49.246;9.106;2023-03-31T07:36:04;10.50;99.90
19586;DHT22;9939;49.246;9.106;2023-03-31T07:38:39;10.70;99.90
19586;DHT22;9939;49.246;9.106;2023-03-31T07:41:11;10.80;99.90
19586;DHT22;9939;49.246;9.106;2023-03-31T07:43:38;11.00;99.90
19586;DHT22;9939;49.246;9.106;2023-03-31T07:46:06;11.30;99.90
19586;DHT22;9939;49.246;9.106;2023-03-31T07:48:34;11.50;99.90
19586;DHT22;9939;49.246;9.106;2023-03-31T07:51:01;11.40;99.90
19586;DHT22;9939;49.246;9.106;2023-03-31T07:53:33;11.50;99.90
19586;DHT22;9939;49.246;9.106;2023-03-31T07:56:01;11.60;99.90
19586;DHT22;9939;49.246;9.106;2023-03-31T07:58:28;11.50;99.90
19586;DHT22;9939;49.246;9.106;2023-03-31T08:00:55;11.60;99.90
19586;DHT22;9939;49.246;9.106;2023-03-31T08:03:22;11.50;99.90
19586;DHT22;9939;49.246;9.106;2023-03-31T08:05:52;11.60;99.90
19586;DHT22;9939;49.246;9.106;2023-03-31T08:08:20;11.70;99.90
19586;DHT22;9939;49.246;9.106;2023-03-31T08:10:48;11.90;99.90
19586;DHT22;9939;49.246;9.106;2023-03-31T08:13:15;11.90;99.90
19586;DHT22;9939;49.246;9.106;2023-03-31T08:15:42;11.90;99.90
19586;DHT22;9939;49.246;9.106;2023-03-31T08:18:09;11.90;99.90
19586;DHT22;9939;49.246;9.106;2023-03-31T08:20:36;11.90;99.90
19586;DHT22;9939;49.246;9.106;2023-03-31T08:23:05;11.90;99.90
19586;DHT22;9939;49.246;9.106;2023-03-31T08:25:34;12.20;99.90
19586;DHT22;9939;49.246;9.106;2023-03-31T08:28:01;12.60;99.90
19586;DHT22;9939;49.246;9.106;2023-03-31T08:30:28;12.60;99.90
19586;DHT22;9939;49.246;9.106;2023-03-31T08:32:55;12.60;99.90
19586;DHT22;9939;49.246;9.106;2023-03-31T08:35:22;12.60;99.90
19586;DHT22;9939;49.246;9.106;2023-03-31T08:37:49;12.60;99.90
19586;DHT22;9939;49.246;9.106;2023-03-31T08:40:21;12.70;99.90
19586;DHT22;9939;49.246;9.106;2023-03-31T08:42:50;12.80;99.90
19586;DHT22;9939;49.246;9.106;2023-03-31T08:45:20;13.20;99.90
19586;DHT22;9939;49.246;9.106;2023-03-31T08:47:49;13.40;99.90
19586;DHT22;9939;49.246;9.106;2023-03-31T08:50:19;13.60;99.90
19586;DHT22;9939;49.246;9.106;2023-03-31T08:52:48;13.80;99.90
19586;DHT22;9939;49.246;9.106;2023-03-31T08:55:21;14.00;99.90
19586;DHT22;9939;49.246;9.106;2023-03-31T08:58:00;14.10;99.90
19586;DHT22;9939;49.246;9.106;2023-03-31T09:00:33;14.10;99.90
19586;DHT22;9939;49.246;9.106;2023-03-31T09:03:10;14.20;99.90
19586;DHT22;9939;49.246;9.106;2023-03-31T09:05:43;14.30;99.90
19586;DHT22;9939;49.246;9.106;2023-03-31T09:08:38;14.20;99.90
19586;DHT22;9939;49.246;9.106;2023-03-31T09:11:08;14.30;99.90
19586;DHT22;9939;49.246;9.106;2023-03-31T09:16:43;15.50;99.90
19586;DHT22;9939;49.246;9.106;2023-03-31T09:19:10;15.90;99.90
19586;DHT22;9939;49.246;9.106;2023-03-31T09:21:40;15.80;99.90
19586;DHT22;9939;49.246;9.106;2023-03-31T09:24:14;15.40;99.90
19586;DHT22;9939;49.246;9.106;2023-03-31T09:29:13;15.60;99.90
19586;DHT22;9939;49.246;9.106;2023-03-31T09:31:44;16.10;99.90
19586;DHT22;9939;49.246;9.106;2023-03-31T09:34:13;16.00;99.90
19586;DHT22;9939;49.246;9.106;2023-03-31T09:36:41;16.00;99.90
19586;DHT22;9939;49.246;9.106;2023-03-31T09:39:12;16.50;99.90
19586;DHT22;9939;49.246;9.106;2023-03-31T09:41:42;16.20;99.90
19586;DHT22;9939;49.246;9.106;2023-03-31T09:44:16;16.40;99.90
19586;DHT22;9939;49.246;9.106;2023-03-31T09:46:46;15.60;99.90
19586;DHT22;9939;49.246;9.106;2023-03-31T09:49:14;15.60;99.90
19586;DHT22;9939;49.246;9.106;2023-03-31T09:51:44;16.80;99.90
19586;DHT22;9939;49.246;9.106;2023-03-31T09:54:21;17.90;99.90
19586;DHT22;9939;49.246;9.106;2023-03-31T09:56:50;18.70;99.90
19586;DHT22;9939;49.246;9.106;2023-03-31T09:59:21;18.80;99.90
19586;DHT22;9939;49.246;9.106;2023-03-31T10:01:49;18.50;99.90
19586;DHT22;9939;49.246;9.106;2023-03-31T10:04:22;18.90;99.90
19586;DHT22;9939;49.246;9.106;2023-03-31T10:06:49;19.20;99.90
19586;DHT22;9939;49.246;9.106;2023-03-31T10:09:19;19.50;99.90
19586;DHT22;9939;49.246;9.106;2023-03-31T10:11:53;19.00;99.90
19586;DHT22;9939;49.246;9.106;2023-03-31T10:14:26;18.20;99.90
19586;DHT22;9939;49.246;9.106;2023-03-31T10:16:54;18.00;99.90
19586;DHT22;9939;49.246;9.106;2023-03-31T10:19:25;17.00;99.90
19586;DHT22;9939;49.246;9.106;2023-03-31T10:21:56;16.50;99.90
19586;DHT22;9939;49.246;9.106;2023-03-31T10:24:24;16.20;99.90
19586;DHT22;9939;49.246;9.106;2023-03-31T10:26:54;15.80;99.90
19586;DHT22;9939;49.246;9.106;2023-03-31T10:29:22;15.90;99.90
19586;DHT22;9939;49.246;9.106;2023-03-31T10:31:52;16.40;99.90
19586;DHT22;9939;49.246;9.106;2023-03-31T10:34:21;17.20;99.90
19586;DHT22;9939;49.246;9.106;2023-03-31T10:36:51;17.40;99.90
19586;DHT22;9939;49.246;9.106;2023-03-31T10:39:18;16.70;99.90
19586;DHT22;9939;49.246;9.106;2023-03-31T10:41:49;16.60;99.90
19586;DHT22;9939;49.246;9.106;2023-03-31T10:46:56;15.90;99.90
19586;DHT22;9939;49.246;9.106;2023-03-31T10:49:28;15.60;99.90
19586;DHT22;9939;49.246;9.106;2023-03-31T10:51:57;15.50;99.90
19586;DHT22;9939;49.246;9.106;2023-03-31T10:54:24;16.10;99.90
19586;DHT22;9939;49.246;9.106;2023-03-31T10:56:56;16.10;99.90
19586;DHT22;9939;49.246;9.106;2023-03-31T10:59:40;16.20;99.90
19586;DHT22;9939;49.246;9.106;2023-03-31T11:10:33;18.30;99.90
19586;DHT22;9939;49.246;9.106;2023-03-31T11:12:43;17.20;99.90
19586;DHT22;9939;49.246;9.106;2023-03-31T11:22:58;14.70;99.90
19586;DHT22;9939;49.246;9.106;2023-03-31T11:28:19;12.00;99.90
19586;DHT22;9939;49.246;9.106;2023-03-31T11:33:52;10.40;99.90
19586;DHT22;9939;49.246;9.106;2023-03-31T11:41:21;10.40;99.90
19586;DHT22;9939;49.246;9.106;2023-03-31T11:43:54;10.60;99.90
19586;DHT22;9939;49.246;9.106;2023-03-31T11:46:37;11.00;99.90
19586;DHT22;9939;49.246;9.106;2023-03-31T11:51:46;12.80;99.90
19586;DHT22;9939;49.246;9.106;2023-03-31T11:54:19;14.10;99.90
19586;DHT22;9939;49.246;9.106;2023-03-31T11:56:48;15.40;99.90
19586;DHT22;9939;49.246;9.106;2023-03-31T11:59:16;16.70;99.90
19586;DHT22;9939;49.246;9.106;2023-03-31T12:01:53;17.30;99.90
19586;DHT22;9939;49.246;9.106;2023-03-31T12:04:31;17.20;99.90
19586;DHT22;9939;49.246;9.106;2023-03-31T12:07:02;16.80;99.90
19586;DHT22;9939;49.246;9.106;2023-03-31T12:12:21;15.70;99.90
19586;DHT22;9939;49.246;9.106;2023-03-31T12:14:53;15.80;99.90
19586;DHT22;9939;49.246;9.106;2023-03-31T12:17:27;16.30;99.90
19586;DHT22;9939;49.246;9.106;2023-03-31T12:19:56;16.20;99.90
19586;DHT22;9939;49.246;9.106;2023-03-31T12:24:52;15.30;99.90
19586;DHT22;9939;49.246;9.106;2023-03-31T12:27:24;14.90;99.90
19586;DHT22;9939;49.246;9.106;2023-03-31T12:32:21;14.40;99.90
19586;DHT22;9939;49.246;9.106;2023-03-31T12:34:52;14.80;99.90
19586;DHT22;9939;49.246;9.106;2023-03-31T12:40:09;15.20;99.90
19586;DHT22;9939;49.246;9.106;2023-03-31T12:42:41;15.90;99.90
19586;DHT22;9939;49.246;9.106;2023-03-31T12:45:30;17.10;99.90
19586;DHT22;9939;49.246;9.106;2023-03-31T12:55:59;19.20;99.90
19586;DHT22;9939;49.246;9.106;2023-03-31T13:01:05;17.40;99.90
19586;DHT22;9939;49.246;9.106;2023-03-31T13:03:35;16.40;99.90
19586;DHT22;9939;49.246;9.106;2023-03-31T13:06:02;16.00;99.90
19586;DHT22;9939;49.246;9.106;2023-03-31T13:08:49;14.90;99.90
19586;DHT22;9939;49.246;9.106;2023-03-31T13:11:17;14.60;99.90
19586;DHT22;9939;49.246;9.106;2023-03-31T13:13:58;14.60;99.90
19586;DHT22;9939;49.246;9.106;2023-03-31T13:16:30;14.60;99.90
19586;DHT22;9939;49.246;9.106;2023-03-31T13:18:57;14.50;99.90
19586;DHT22;9939;49.246;9.106;2023-03-31T13:21:24;14.60;99.90
19586;DHT22;9939;49.246;9.106;2023-03-31T13:23:51;14.80;99.90
19586;DHT22;9939;49.246;9.106;2023-03-31T13:34:23;16.80;99.90
19586;DHT22;9939;49.246;9.106;2023-03-31T13:36:59;16.00;99.90
19586;DHT22;9939;49.246;9.106;2023-03-31T13:58:18;15.10;99.90
19586;DHT22;9939;49.246;9.106;2023-03-31T14:08:51;15.50;99.90
19586;DHT22;9939;49.246;9.106;2023-03-31T14:16:37;14.30;99.90
19586;DHT22;9939;49.246;9.106;2023-03-31T14:35:16;20.90;99.90
19586;DHT22;9939;49.246;9.106;2023-03-31T14:37:49;20.60;99.90
19586;DHT22;9939;49.246;9.106;2023-03-31T14:40:16;20.50;99.90
19586;DHT22;9939;49.246;9.106;2023-03-31T14:42:44;19.80;99.90
19586;DHT22;9939;49.246;9.106;2023-03-31T14:45:17;17.70;99.90
19586;DHT22;9939;49.246;9.106;2023-03-31T14:47:57;16.10;99.90
19586;DHT22;9939;49.246;9.106;2023-03-31T14:50:29;15.10;99.90
19586;DHT22;9939;49.246;9.106;2023-03-31T14:52:56;14.70;99.90
19586;DHT22;9939;49.246;9.106;2023-03-31T14:55:25;14.40;99.90
19586;DHT22;9939;49.246;9.106;2023-03-31T14:58:05;14.00;99.90
19586;DHT22;9939;49.246;9.106;2023-03-31T15:00:32;13.90;99.90
19586;DHT22;9939;49.246;9.106;2023-03-31T15:03:00;13.30;99.90
19586;DHT22;9939;49.246;9.106;2023-03-31T15:05:32;13.00;99.90
19586;DHT22;9939;49.246;9.106;2023-03-31T15:08:03;12.80;99.90
19586;DHT22;9939;49.246;9.106;2023-03-31T15:10:35;12.30;99.90
19586;DHT22;9939;49.246;9.106;2023-03-31T15:13:10;11.60;99.90
19586;DHT22;9939;49.246;9.106;2023-03-31T15:15:37;11.20;99.90
19586;DHT22;9939;49.246;9.106;2023-03-31T15:18:04;10.90;99.90
19586;DHT22;9939;49.246;9.106;2023-03-31T15:20:34;10.90;99.90
19586;DHT22;9939;49.246;9.106;2023-03-31T15:23:03;10.80;99.90
19586;DHT22;9939;49.246;9.106;2023-03-31T15:25:32;10.90;99.90
19586;DHT22;9939;49.246;9.106;2023-03-31T15:28:03;11.00;99.90
19586;DHT22;9939;49.246;9.106;2023-03-31T15:30:32;11.10;99.90
19586;DHT22;9939;49.246;9.106;2023-03-31T15:33:04;11.50;99.90
19586;DHT22;9939;49.246;9.106;2023-03-31T15:35:44;11.80;99.90
19586;DHT22;9939;49.246;9.106;2023-03-31T15:38:11;12.20;99.90
19586;DHT22;9939;49.246;9.106;2023-03-31T15:40:42;12.40;99.90
19586;DHT22;9939;49.246;9.106;2023-03-31T15:46:00;12.70;99.90
19586;DHT22;9939;49.246;9.106;2023-03-31T15:48:28;12.70;99.90
19586;DHT22;9939;49.246;9.106;2023-03-31T15:50:59;12.80;99.90
19586;DHT22;9939;49.246;9.106;2023-03-31T15:53:28;12.80;99.90
19586;DHT22;9939;49.246;9.106;2023-03-31T15:55:57;12.80;99.90
19586;DHT22;9939;49.246;9.106;2023-03-31T15:58:45;12.90;99.90
19586;DHT22;9939;49.246;9.106;2023-03-31T16:01:13;13.00;99.90
19586;DHT22;9939;49.246;9.106;2023-03-31T16:03:41;13.10;99.90
19586;DHT22;9939;49.246;9.106;2023-03-31T16:06:17;13.20;99.90
19586;DHT22;9939;49.246;9.106;2023-03-31T16:09:07;12.90;99.90
19586;DHT22;9939;49.246;9.106;2023-03-31T16:11:41;12.70;99.90
19586;DHT22;9939;49.246;9.106;2023-03-31T16:14:14;12.60;99.90
19586;DHT22;9939;49.246;9.106;2023-03-31T16:16:50;12.60;99.90
19586;DHT22;9939;49.246;9.106;2023-03-31T16:19:18;12.40;99.90
19586;DHT22;9939;49.246;9.106;2023-03-31T16:21:47;12.30;99.90
19586;DHT22;9939;49.246;9.106;2023-03-31T16:24:19;12.30;99.90
19586;DHT22;9939;49.246;9.106;2023-03-31T16:26:47;12.30;99.90
19586;DHT22;9939;49.246;9.106;2023-03-31T16:29:20;12.40;99.90
19586;DHT22;9939;49.246;9.106;2023-03-31T16:31:47;12.40;99.90
19586;DHT22;9939;49.246;9.106;2023-03-31T16:34:15;12.30;99.90
19586;DHT22;9939;49.246;9.106;2023-03-31T16:36:42;12.30;99.90
19586;DHT22;9939;49.246;9.106;2023-03-31T16:39:09;12.20;99.90
19586;DHT22;9939;49.246;9.106;2023-03-31T16:41:36;12.20;99.90
19586;DHT22;9939;49.246;9.106;2023-03-31T16:44:04;12.20;99.90
19586;DHT22;9939;49.246;9.106;2023-03-31T16:46:32;12.00;99.90
19586;DHT22;9939;49.246;9.106;2023-03-31T16:48:59;12.20;99.90
19586;DHT22;9939;49.246;9.106;2023-03-31T16:51:26;12.10;99.90
19586;DHT22;9939;49.246;9.106;2023-03-31T16:53:53;12.00;99.90
19586;DHT22;9939;49.246;9.106;2023-03-31T16:56:24;12.00;99.90
19586;DHT22;9939;49.246;9.106;2023-03-31T16:58:52;12.00;99.90
19586;DHT22;9939;49.246;9.106;2023-03-31T17:01:19;11.90;99.90
19586;DHT22;9939;49.246;9.106;2023-03-31T17:03:46;11.80;99.90
19586;DHT22;9939;49.246;9.106;2023-03-31T17:06:14;11.80;99.90
19586;DHT22;9939;49.246;9.106;2023-03-31T17:08:41;11.60;99.90
19586;DHT22;9939;49.246;9.106;2023-03-31T17:11:09;11.50;99.90
19586;DHT22;9939;49.246;9.106;2023-03-31T17:13:37;11.40;99.90
19586;DHT22;9939;49.246;9.106;2023-03-31T17:16:05;11.30;99.90
19586;DHT22;9939;49.246;9.106;2023-03-31T17:18:49;11.30;99.90
19586;DHT22;9939;49.246;9.106;2023-03-31T17:21:17;11.20;99.90
19586;DHT22;9939;49.246;9.106;2023-03-31T17:23:45;11.00;99.90
19586;DHT22;9939;49.246;9.106;2023-03-31T17:26:12;11.10;99.90
19586;DHT22;9939;49.246;9.106;2023-03-31T17:28:39;11.10;99.90
19586;DHT22;9939;49.246;9.106;2023-03-31T17:31:14;11.00;99.90
19586;DHT22;9939;49.246;9.106;2023-03-31T17:33:41;10.80;99.90
19586;DHT22;9939;49.246;9.106;2023-03-31T17:36:09;10.50;99.90
19586;DHT22;9939;49.246;9.106;2023-03-31T17:38:36;10.00;99.90
19586;DHT22;9939;49.246;9.106;2023-03-31T17:41:08;9.60;99.90
19586;DHT22;9939;49.246;9.106;2023-03-31T17:43:35;9.30;99.90
19586;DHT22;9939;49.246;9.106;2023-03-31T17:46:04;9.20;99.90
19586;DHT22;9939;49.246;9.106;2023-03-31T17:48:32;9.10;99.90
19586;DHT22;9939;49.246;9.106;2023-03-31T17:51:07;9.10;99.90
19586;DHT22;9939;49.246;9.106;2023-03-31T17:53:34;9.10;99.90
19586;DHT22;9939;49.246;9.106;2023-03-31T17:56:02;9.10;99.90
19586;DHT22;9939;49.246;9.106;2023-03-31T17:58:32;9.00;99.90
19586;DHT22;9939;49.246;9.106;2023-03-31T18:00:59;9.00;99.90
19586;DHT22;9939;49.246;9.106;2023-03-31T18:03:26;9.00;99.90
19586;DHT22;9939;49.246;9.106;2023-03-31T18:05:53;9.10;99.90
19586;DHT22;9939;49.246;9.106;2023-03-31T18:08:21;9.00;99.90
19586;DHT22;9939;49.246;9.106;2023-03-31T18:10:48;9.00;99.90
19586;DHT22;9939;49.246;9.106;2023-03-31T18:13:16;9.10;99.90
19586;DHT22;9939;49.246;9.106;2023-03-31T18:15:49;9.10;99.90
19586;DHT22;9939;49.246;9.106;2023-03-31T18:18:18;9.20;99.90
19586;DHT22;9939;49.246;9.106;2023-03-31T18:20:46;9.20;99.90
19586;DHT22;9939;49.246;9.106;2023-03-31T18:23:13;9.30;99.90
19586;DHT22;9939;49.246;9.106;2023-03-31T18:25:41;9.30;99.90
19586;DHT22;9939;49.246;9.106;2023-03-31T18:28:12;9.30;99.90
19586;DHT22;9939;49.246;9.106;2023-03-31T18:30:39;9.20;99.90
19586;DHT22;9939;49.246;9.106;2023-03-31T18:33:06;9.20;99.90
19586;DHT22;9939;49.246;9.106;2023-03-31T18:35:33;9.20;99.90
19586;DHT22;9939;49.246;9.106;2023-03-31T18:38:00;9.20;99.90
19586;DHT22;9939;49.246;9.106;2023-03-31T18:40:27;9.30;99.90
19586;DHT22;9939;49.246;9.106;2023-03-31T18:42:55;9.20;99.90
19586;DHT22;9939;49.246;9.106;2023-03-31T18:45:22;9.20;99.90